Accueil
METAR-TAF:

METAR-TAF

Aéroports :

Aéroport Federico-Fellini

Rimini, Italie

latitude: 44-02N, longitude: 012-37E, altitude: 12 m

Observation

Le bulletin a été fait il y a 23 minutes, à 22:20 UTC
Vent 11 kt de ouest
Température 6°C
Humidité 93%
Pression 1011 hPa
Visibilité: 3900 m
brume

METAR: LIPR 202220Z AUTO 26011KT 3900 BR BKN012/// 06/05 Q1011

Heure: 23:43 (22:43 UTC)

Prévision

Le bulletin a été fait il y a 2 heures et 43 minutes, à 20:00 UTC
Prévision valable du 20 à 21 UTC au 21 à 06 UTC
Vent 10 kt de ouest
Visibilité: 4000 m
Nuages fragmentés à une hauteur de 1000 ft
brume
Evoluant progressivement
du 20 à 21 UTC au 20 à 23 UTC
Vent 4 kt de direction variable
Temporairement
du 20 à 21 UTC au 21 à 03 UTC
Visibilité: 1500 m

TAF: LIPR 202000Z 2021/2106 28010KT 4000 BR BKN010 BECMG 2021/2023 VRB04KT TEMPO 2021/2103 1500

Observations et prévisions météorologiques de plus de 4000 aéroports (messages METAR et TAF).

Les stations disponibles sont représentées par des disques jaunes et rouges sur la carte.

Passer la souris dessus pour voir le nom de la station.

Cliquer dessus pour voir les observations et prévisions météorologiques.

Pour changer de carte: cliquez sur les boutons verts avec une croix noire pour zoomer, sur le bouton vert avec un tiret pour effectuer un zoom arrière, ou sur les flèches vertes pour les cartes adjacentes.


METAR-TAF: